Time;durP1;ratioP1;P1;durP2;ratioP2;P2;SDS_P1;SDS_P2;PMS_P1;PMS_P2;Temp;Humidity;BMP_temperature;BMP_pressure;BME280_temperature;BME280_humidity;BME280_pressure;Samples;Min_cycle;Max_cycle;Signal;HPM_P1;HPM_P2
2021/06/01 00:01:36;;;;;;;3.07;2.80;;;14.00;94.70;;;;;;5055040;28;20409;-54
2021/06/01 00:04:02;;;;;;;3.50;3.20;;;14.00;94.80;;;;;;5054977;28;20514;-54
2021/06/01 00:06:27;;;;;;;3.50;3.20;;;13.90;94.90;;;;;;5056367;28;20808;-52
2021/06/01 00:08:54;;;;;;;4.00;3.10;;;13.90;95.00;;;;;;5054272;28;20533;-54
2021/06/01 00:11:19;;;;;;;3.40;3.10;;;13.90;94.90;;;;;;5053858;28;20581;-56
2021/06/01 00:13:45;;;;;;;3.00;2.80;;;13.90;95.20;;;;;;5053625;28;20421;-56
2021/06/01 00:16:12;;;;;;;2.80;2.60;;;13.90;95.40;;;;;;5053498;28;20254;-56
2021/06/01 00:18:39;;;;;;;3.13;2.93;;;13.90;95.50;;;;;;5053752;28;20177;-54
2021/06/01 00:21:06;;;;;;;3.20;2.90;;;13.90;95.50;;;;;;5053695;28;20781;-55
2021/06/01 00:23:37;;;;;;;3.03;2.83;;;13.80;95.50;;;;;;5053664;28;20433;-56
2021/06/01 00:26:07;;;;;;;4.33;3.07;;;13.80;95.60;;;;;;5053643;28;20442;-56
2021/06/01 00:28:34;;;;;;;3.53;2.93;;;13.70;95.80;;;;;;5053527;28;20447;-56
2021/06/01 00:31:01;;;;;;;3.90;3.40;;;13.80;95.80;;;;;;5053669;28;20402;-54
2021/06/01 00:33:27;;;;;;;3.50;3.23;;;13.60;95.90;;;;;;5035372;28;20439;-54
2021/06/01 00:35:53;;;;;;;3.83;2.97;;;13.50;96.20;;;;;;5035897;28;20416;-54
2021/06/01 00:38:19;;;;;;;3.83;3.40;;;13.40;96.40;;;;;;5054064;28;20412;-59
2021/06/01 00:40:44;;;;;;;3.53;3.23;;;13.40;96.80;;;;;;5053747;28;20164;-55
2021/06/01 00:43:10;;;;;;;3.10;2.90;;;13.50;96.90;;;;;;5053731;28;20186;-55
2021/06/01 00:45:35;;;;;;;3.03;2.83;;;13.40;96.90;;;;;;5053397;28;20202;-55
2021/06/01 00:48:01;;;;;;;3.60;3.30;;;13.40;97.00;;;;;;5053586;28;20171;-56
2021/06/01 00:50:28;;;;;;;3.87;3.57;;;13.30;97.40;;;;;;5053834;28;20785;-56
2021/06/01 00:52:56;;;;;;;3.50;3.20;;;13.40;97.50;;;;;;5053276;28;20162;-57
2021/06/01 00:55:24;;;;;;;3.90;3.50;;;13.40;97.50;;;;;;5053571;28;20386;-57
2021/06/01 00:57:51;;;;;;;2.90;2.70;;;13.60;97.90;;;;;;5052926;28;20419;-56
2021/06/01 01:02:50;;;;;;;2.90;2.70;;;13.60;97.50;;;;;;5053106;28;20397;-57
2021/06/01 01:05:17;;;;;;;3.80;3.50;;;13.80;97.90;;;;;;5055626;28;20401;-57
2021/06/01 01:08:01;;;;;;;2.97;2.77;;;13.80;97.80;;;;;;5057108;28;20257;-55
2021/06/01 01:10:28;;;;;;;3.50;3.30;;;13.80;97.60;;;;;;5056616;28;20437;-57
2021/06/01 01:12:58;;;;;;;3.40;3.10;;;13.70;97.60;;;;;;5056752;28;20459;-56
2021/06/01 01:15:25;;;;;;;3.67;3.30;;;13.60;97.80;;;;;;5056599;28;20456;-55
2021/06/01 01:17:54;;;;;;;2.90;2.70;;;13.60;97.90;;;;;;5051571;28;20417;-56
2021/06/01 01:20:43;;;;;;;3.20;2.90;;;13.70;97.70;;;;;;5039211;28;20413;-57
2021/06/01 01:23:20;;;;;;;3.50;3.20;;;13.70;97.70;;;;;;5036877;28;20424;-55
2021/06/01 01:26:21;;;;;;;3.67;3.37;;;13.60;97.50;;;;;;5036831;28;20393;-57
2021/06/01 01:28:54;;;;;;;3.10;2.90;;;13.50;97.70;;;;;;4992855;28;20500;-57
2021/06/01 01:31:46;;;;;;;3.63;3.33;;;13.50;98.20;;;;;;5037135;28;20387;-55
2021/06/01 01:34:13;;;;;;;3.43;3.13;;;13.40;98.50;;;;;;5036384;28;20464;-56
2021/06/01 01:36:40;;;;;;;3.03;2.80;;;13.40;98.40;;;;;;5036484;28;20405;-53
2021/06/01 01:39:08;;;;;;;3.90;3.60;;;13.30;98.40;;;;;;5036314;28;20429;-57
2021/06/01 01:41:36;;;;;;;3.47;3.17;;;13.30;98.60;;;;;;5036615;28;20435;-55
2021/06/01 01:44:07;;;;;;;3.70;3.40;;;13.40;98.60;;;;;;5036478;28;20426;-56
2021/06/01 01:49:12;;;;;;;3.67;3.10;;;13.30;99.00;;;;;;5036441;28;20941;-56
2021/06/01 01:51:41;;;;;;;3.63;3.33;;;13.30;98.80;;;;;;5036215;28;20485;-56
2021/06/01 01:54:22;;;;;;;3.77;3.47;;;13.40;99.10;;;;;;5063506;23;20501;-53
2021/06/01 01:56:53;;;;;;;3.67;3.37;;;13.40;99.40;;;;;;5076046;28;20403;-54
2021/06/01 01:59:24;;;;;;;3.87;3.57;;;13.40;99.20;;;;;;5075604;28;20407;-55
2021/06/01 02:01:50;;;;;;;4.03;3.33;;;13.40;99.10;;;;;;5075691;28;20394;-54
2021/06/01 02:04:22;;;;;;;3.50;3.20;;;13.40;99.30;;;;;;5084171;28;20954;-54
2021/06/01 02:06:48;;;;;;;3.00;2.80;;;13.30;99.30;;;;;;5096423;28;20391;-55
2021/06/01 02:09:14;;;;;;;3.80;3.50;;;13.30;99.50;;;;;;5096047;28;20435;-53
2021/06/01 02:11:40;;;;;;;3.00;2.80;;;13.20;99.90;;;;;;5095975;28;20580;-55
2021/06/01 02:14:06;;;;;;;3.50;3.20;;;13.20;99.90;;;;;;5095406;28;20798;-55
2021/06/01 02:16:40;;;;;;;3.70;3.40;;;13.20;99.90;;;;;;5095604;28;20405;-53
2021/06/01 02:19:10;;;;;;;3.27;3.00;;;13.20;99.90;;;;;;5095581;28;20971;-55
2021/06/01 02:24:16;;;;;;;3.80;3.50;;;13.00;99.90;;;;;;5095719;28;20425;-53
2021/06/01 02:26:51;;;;;;;4.13;3.03;;;12.90;99.90;;;;;;5095264;28;20383;-50
2021/06/01 02:29:27;;;;;;;3.20;2.90;;;12.80;99.90;;;;;;5095392;28;20504;-53
2021/06/01 02:31:53;;;;;;;3.70;3.40;;;12.80;99.90;;;;;;5095288;28;20414;-52
2021/06/01 02:34:21;;;;;;;3.80;3.50;;;12.80;99.90;;;;;;5095484;28;20423;-55
2021/06/01 02:36:51;;;;;;;3.57;3.27;;;12.60;99.90;;;;;;5095259;28;20406;-50
2021/06/01 02:39:19;;;;;;;4.40;3.10;;;12.50;99.90;;;;;;5095187;28;20479;-51
2021/06/01 02:41:47;;;;;;;3.20;2.90;;;12.60;99.90;;;;;;5094806;28;20415;-54
2021/06/01 02:44:13;;;;;;;3.90;2.90;;;12.60;99.90;;;;;;5095146;28;20428;-53
2021/06/01 02:46:40;;;;;;;3.30;2.93;;;12.70;99.90;;;;;;5094943;28;20452;-56
2021/06/01 02:49:06;;;;;;;3.27;3.03;;;12.70;99.90;;;;;;5094496;28;21000;-55
2021/06/01 02:51:33;;;;;;;3.50;3.20;;;12.70;99.90;;;;;;5094592;28;20437;-56
2021/06/01 02:53:59;;;;;;;3.10;2.90;;;12.80;99.90;;;;;;5094603;28;20781;-53
2021/06/01 02:56:26;;;;;;;3.53;2.90;;;12.80;99.90;;;;;;5094532;28;20493;-56
2021/06/01 02:58:52;;;;;;;2.90;2.70;;;12.80;99.90;;;;;;5094743;28;20772;-55
2021/06/01 03:01:20;;;;;;;3.43;3.13;;;12.80;99.90;;;;;;5094467;28;20404;-55
2021/06/01 03:03:46;;;;;;;3.73;3.43;;;12.80;99.90;;;;;;5076202;28;20198;-52
2021/06/01 03:06:12;;;;;;;3.90;3.60;;;12.80;99.90;;;;;;5094710;28;20415;-52
2021/06/01 03:08:39;;;;;;;3.50;3.20;;;12.80;99.90;;;;;;5094508;28;20244;-56
2021/06/01 03:11:05;;;;;;;4.53;3.77;;;12.80;99.90;;;;;;5094241;28;20403;-52
2021/06/01 03:13:31;;;;;;;3.90;3.20;;;12.80;99.90;;;;;;5094368;28;20391;-50
2021/06/01 03:15:57;;;;;;;4.37;3.73;;;12.70;99.90;;;;;;5094112;28;20890;-50
2021/06/01 03:18:22;;;;;;;3.33;3.03;;;12.70;99.90;;;;;;5094066;28;20169;-50
2021/06/01 03:20:49;;;;;;;3.30;3.00;;;12.70;99.90;;;;;;5094569;28;20161;-51
2021/06/01 03:23:16;;;;;;;3.90;3.57;;;12.60;99.90;;;;;;5094006;28;20222;-51
2021/06/01 03:25:41;;;;;;;3.70;3.50;;;12.60;99.90;;;;;;5094317;28;20414;-55
2021/06/01 03:28:07;;;;;;;3.70;3.40;;;12.60;99.90;;;;;;5093550;28;20400;-55
2021/06/01 03:30:34;;;;;;;5.27;3.33;;;12.60;99.90;;;;;;5075489;28;20227;-55
2021/06/01 03:33:00;;;;;;;3.43;3.13;;;12.60;99.90;;;;;;5093883;28;20581;-54
2021/06/01 03:35:26;;;;;;;4.73;3.70;;;12.60;99.90;;;;;;5093835;28;20469;-55
2021/06/01 03:37:53;;;;;;;4.20;3.83;;;12.50;99.90;;;;;;5094018;28;20169;-52
2021/06/01 03:40:19;;;;;;;3.63;3.33;;;12.40;99.90;;;;;;5093691;28;20403;-56
2021/06/01 03:42:45;;;;;;;4.10;3.70;;;12.40;99.90;;;;;;5093693;28;20403;-52
2021/06/01 03:45:11;;;;;;;3.63;3.33;;;12.50;99.90;;;;;;5094592;28;20431;-54
2021/06/01 03:47:37;;;;;;;3.67;3.27;;;12.40;99.90;;;;;;5093580;28;20206;-56
2021/06/01 03:50:04;;;;;;;3.97;3.67;;;12.40;99.90;;;;;;5093672;28;20942;-51
2021/06/01 03:52:30;;;;;;;3.57;3.27;;;12.40;99.90;;;;;;5093384;28;20419;-55
2021/06/01 03:54:56;;;;;;;5.77;3.17;;;12.50;99.90;;;;;;5093423;28;20450;-52
2021/06/01 03:57:22;;;;;;;3.90;3.50;;;12.40;99.90;;;;;;5094228;28;20186;-51
2021/06/01 03:59:48;;;;;;;3.70;3.40;;;12.30;99.90;;;;;;5093366;28;20205;-55
2021/06/01 04:02:14;;;;;;;4.13;3.83;;;12.40;99.90;;;;;;5093381;28;20174;-49
2021/06/01 04:04:39;;;;;;;4.33;3.93;;;12.30;99.90;;;;;;5093595;28;20433;-55
2021/06/01 04:07:05;;;;;;;4.10;3.67;;;12.30;99.90;;;;;;5093404;28;20175;-55
2021/06/01 04:09:32;;;;;;;4.10;3.70;;;12.30;99.90;;;;;;5081991;28;20198;-53
2021/06/01 04:11:57;;;;;;;4.23;3.70;;;12.30;99.90;;;;;;5057132;28;20170;-50
2021/06/01 04:14:23;;;;;;;4.10;3.70;;;12.40;99.90;;;;;;5052923;28;20951;-54
2021/06/01 04:16:48;;;;;;;3.80;3.43;;;12.50;99.90;;;;;;5068222;28;20166;-54
2021/06/01 04:19:15;;;;;;;4.30;3.90;;;12.50;99.90;;;;;;5073337;28;20684;-54
2021/06/01 04:21:42;;;;;;;4.80;4.07;;;12.50;99.90;;;;;;5072860;28;20174;-53
2021/06/01 04:24:08;;;;;;;4.37;3.97;;;12.40;99.90;;;;;;5063368;28;20480;-55
2021/06/01 04:26:34;;;;;;;4.63;4.23;;;12.40;99.90;;;;;;5063486;28;20431;-56
2021/06/01 04:29:00;;;;;;;4.63;4.23;;;12.40;99.90;;;;;;5052642;28;20817;-56
2021/06/01 04:31:25;;;;;;;4.20;3.80;;;12.50;99.90;;;;;;5052753;28;20166;-54
2021/06/01 04:33:51;;;;;;;4.90;4.40;;;12.50;99.90;;;;;;5052745;28;20191;-55
2021/06/01 04:36:16;;;;;;;4.17;3.80;;;12.50;99.90;;;;;;5052953;28;20174;-52
2021/06/01 04:38:42;;;;;;;3.60;3.30;;;12.50;99.90;;;;;;5051795;28;20258;-49
2021/06/01 04:41:07;;;;;;;4.57;4.27;;;12.50;99.90;;;;;;5052921;28;20537;-51
2021/06/01 04:43:33;;;;;;;4.27;3.87;;;12.50;99.90;;;;;;5052512;28;20194;-55
2021/06/01 04:46:00;;;;;;;2.97;2.77;;;12.60;99.90;;;;;;5052611;28;20196;-51
2021/06/01 04:48:25;;;;;;;3.43;3.10;;;12.70;99.90;;;;;;5052867;28;20617;-54
2021/06/01 04:50:51;;;;;;;4.13;3.83;;;12.70;99.90;;;;;;5052476;28;20396;-55
2021/06/01 04:53:17;;;;;;;3.70;3.40;;;12.70;99.90;;;;;;5052573;28;20260;-55
2021/06/01 04:55:42;;;;;;;3.50;3.10;;;12.80;99.90;;;;;;5052303;28;20240;-53
2021/06/01 04:58:08;;;;;;;3.70;3.40;;;12.80;99.90;;;;;;5052622;28;20564;-56
2021/06/01 05:00:33;;;;;;;4.17;3.87;;;12.90;99.90;;;;;;5052881;28;20171;-54
2021/06/01 05:02:59;;;;;;;4.50;3.40;;;12.90;99.90;;;;;;5052569;28;20170;-54
2021/06/01 05:05:25;;;;;;;4.27;3.97;;;13.00;99.90;;;;;;5052218;28;20248;-55
2021/06/01 05:07:52;;;;;;;4.30;3.90;;;13.10;99.90;;;;;;5052302;28;20173;-50
2021/06/01 05:10:18;;;;;;;3.90;3.60;;;13.10;99.90;;;;;;5052395;28;20801;-53
2021/06/01 05:12:44;;;;;;;5.00;3.70;;;13.20;99.90;;;;;;5052583;28;20408;-56
2021/06/01 05:15:10;;;;;;;4.03;3.73;;;13.30;99.90;;;;;;5052118;28;20312;-52
2021/06/01 05:17:36;;;;;;;4.10;3.60;;;13.40;99.90;;;;;;5052266;28;20170;-54
2021/06/01 05:20:02;;;;;;;5.20;3.93;;;13.50;99.90;;;;;;5052810;28;20394;-51
2021/06/01 05:22:28;;;;;;;4.70;4.30;;;13.60;99.90;;;;;;5052320;28;20701;-52
2021/06/01 05:24:54;;;;;;;3.60;3.30;;;13.80;99.90;;;;;;5052262;28;20453;-51
2021/06/01 05:27:19;;;;;;;4.00;3.67;;;13.90;99.90;;;;;;5052520;28;20176;-51
2021/06/01 05:29:51;;;;;;;4.40;4.00;;;14.00;99.90;;;;;;5052213;28;20471;-53
2021/06/01 05:35:39;;;;;;;6.40;4.13;;;14.20;99.90;;;;;;5052362;28;20491;-56
2021/06/01 05:37:43;;;;;;;5.00;4.37;;;14.30;99.90;;;;;;5043737;28;20412;-54
2021/06/01 05:40:09;;;;;;;6.43;4.90;;;14.50;99.90;;;;;;5052100;28;20405;-53
2021/06/01 05:42:35;;;;;;;5.73;4.30;;;14.70;99.90;;;;;;5052164;28;20208;-57
2021/06/01 05:45:00;;;;;;;5.23;4.73;;;14.80;99.90;;;;;;5034004;28;20929;-53
2021/06/01 05:47:26;;;;;;;4.70;4.30;;;15.00;99.90;;;;;;5052073;28;20182;-50
2021/06/01 05:49:51;;;;;;;5.40;4.47;;;15.00;99.90;;;;;;5052193;28;20189;-54
2021/06/01 05:52:17;;;;;;;4.57;4.03;;;15.20;99.90;;;;;;5055690;28;20258;-55
2021/06/01 05:54:43;;;;;;;7.00;4.87;;;15.30;99.90;;;;;;5055067;28;20637;-55
2021/06/01 05:57:08;;;;;;;4.73;3.77;;;15.60;99.90;;;;;;5055304;28;20251;-54
2021/06/01 05:59:34;;;;;;;5.30;4.60;;;15.80;99.90;;;;;;5055229;28;20164;-55
2021/06/01 06:01:59;;;;;;;5.73;5.23;;;15.80;99.90;;;;;;5055475;28;20277;-54
2021/06/01 06:04:25;;;;;;;5.40;4.17;;;15.60;99.90;;;;;;5055205;28;20195;-54
2021/06/01 06:06:51;;;;;;;4.37;3.97;;;15.60;99.90;;;;;;5055498;28;20177;-52
2021/06/01 06:09:17;;;;;;;5.87;4.37;;;15.60;99.30;;;;;;5037051;28;20195;-54
2021/06/01 06:11:43;;;;;;;4.53;3.63;;;15.80;99.70;;;;;;5054903;28;20412;-50
2021/06/01 06:14:08;;;;;;;5.40;4.57;;;15.90;99.40;;;;;;5054821;28;20238;-54
2021/06/01 06:16:59;;;;;;;7.43;5.30;;;16.20;99.80;;;;;;5055508;28;20195;-56
2021/06/01 06:19:25;;;;;;;5.87;4.30;;;16.30;99.70;;;;;;5063872;28;20222;-54
2021/06/01 06:21:51;;;;;;;5.17;4.70;;;16.50;99.70;;;;;;5075234;28;20404;-54
2021/06/01 06:24:16;;;;;;;10.10;6.60;;;16.60;99.80;;;;;;5074879;28;20215;-54
2021/06/01 06:26:42;;;;;;;6.80;5.70;;;16.50;99.40;;;;;;5075251;28;20176;-54
2021/06/01 06:29:07;;;;;;;6.40;5.80;;;16.70;99.60;;;;;;5057064;28;20195;-55
2021/06/01 06:31:33;;;;;;;6.20;5.57;;;16.90;99.30;;;;;;5075178;28;20161;-56
2021/06/01 06:34:00;;;;;;;7.57;6.17;;;17.00;99.30;;;;;;5074669;28;20184;-53
2021/06/01 06:36:26;;;;;;;8.10;7.07;;;16.90;99.70;;;;;;5075286;28;20168;-56
2021/06/01 06:38:51;;;;;;;9.50;7.10;;;16.90;98.60;;;;;;5075403;28;20460;-54
2021/06/01 06:41:17;;;;;;;7.30;6.57;;;17.10;98.50;;;;;;5075442;28;20579;-53
2021/06/01 06:43:48;;;;;;;8.50;5.80;;;17.30;98.40;;;;;;5075151;28;20194;-55
2021/06/01 06:46:23;;;;;;;8.30;6.33;;;17.50;98.60;;;;;;5074959;28;20150;-56
2021/06/01 06:48:48;;;;;;;6.47;5.87;;;17.70;98.10;;;;;;5074794;28;20440;-54
2021/06/01 06:51:14;;;;;;;7.20;5.87;;;17.80;96.10;;;;;;5074784;28;20465;-55
2021/06/01 06:53:56;;;;;;;3.93;3.53;;;17.90;96.10;;;;;;5074831;28;20231;-54
2021/06/01 06:56:24;;;;;;;4.20;3.80;;;17.50;94.30;;;;;;5074662;28;20181;-56
2021/06/01 06:58:50;;;;;;;4.33;4.00;;;17.40;93.60;;;;;;5074979;28;20495;-53
2021/06/01 07:01:16;;;;;;;3.90;3.60;;;17.50;93.70;;;;;;5074463;28;20407;-54
2021/06/01 07:03:41;;;;;;;3.70;3.40;;;17.80;93.60;;;;;;5073531;28;20428;-55
2021/06/01 07:06:07;;;;;;;3.70;3.40;;;18.10;93.10;;;;;;5074408;28;20257;-55
2021/06/01 07:08:33;;;;;;;3.13;2.93;;;18.30;93.00;;;;;;5074304;28;20223;-54
2021/06/01 07:10:59;;;;;;;4.73;3.50;;;18.30;92.00;;;;;;5074085;28;20178;-55
2021/06/01 07:13:31;;;;;;;3.63;3.33;;;18.10;92.20;;;;;;5073961;28;20162;-55
2021/06/01 07:15:57;;;;;;;3.90;3.50;;;18.20;92.10;;;;;;5073679;28;20385;-55
2021/06/01 07:18:23;;;;;;;3.90;3.50;;;18.00;91.40;;;;;;5067022;28;20427;-52
2021/06/01 07:20:48;;;;;;;3.83;3.13;;;18.00;91.60;;;;;;5062071;28;20170;-56
2021/06/01 07:23:14;;;;;;;3.37;3.07;;;18.00;91.50;;;;;;5053812;28;20273;-56
2021/06/01 07:25:40;;;;;;;3.23;2.93;;;18.10;91.20;;;;;;5054034;28;20167;-55
2021/06/01 07:28:05;;;;;;;3.90;3.50;;;18.10;91.00;;;;;;5053982;28;20171;-56
2021/06/01 07:30:31;;;;;;;3.80;3.50;;;18.00;90.80;;;;;;5053684;28;20289;-55
2021/06/01 07:32:59;;;;;;;4.30;3.60;;;18.00;91.40;;;;;;5054025;28;20169;-56
2021/06/01 07:35:25;;;;;;;5.37;3.50;;;18.20;91.20;;;;;;5053563;28;20454;-55
2021/06/01 07:37:51;;;;;;;5.23;3.20;;;18.30;90.40;;;;;;5053720;28;20397;-50
2021/06/01 07:40:17;;;;;;;3.90;3.60;;;18.30;90.40;;;;;;5053839;28;20407;-52
2021/06/01 07:42:43;;;;;;;4.00;3.70;;;18.20;90.10;;;;;;5054138;28;20171;-56
2021/06/01 07:45:10;;;;;;;3.80;3.30;;;18.30;90.50;;;;;;5053681;28;20477;-55
2021/06/01 07:47:36;;;;;;;5.30;3.53;;;18.40;89.30;;;;;;5053418;28;20178;-53
2021/06/01 07:50:04;;;;;;;4.10;3.70;;;18.50;90.30;;;;;;5053455;28;20445;-56
2021/06/01 07:52:30;;;;;;;3.60;3.30;;;18.50;87.90;;;;;;5053341;28;20170;-56
2021/06/01 07:54:56;;;;;;;3.47;3.03;;;18.60;88.80;;;;;;5085783;23;20555;-58
2021/06/01 07:57:22;;;;;;;3.20;2.90;;;18.70;87.20;;;;;;5073623;28;20158;-57
2021/06/01 07:59:47;;;;;;;3.37;3.07;;;18.70;88.20;;;;;;5074101;28;20400;-59
2021/06/01 08:02:13;;;;;;;3.40;3.03;;;18.80;89.30;;;;;;5073817;28;20184;-58
2021/06/01 08:04:39;;;;;;;3.37;3.07;;;19.00;87.90;;;;;;5073268;28;20190;-58
2021/06/01 08:07:13;;;;;;;3.37;3.00;;;19.10;84.60;;;;;;5073443;28;20223;-55
2021/06/01 08:09:38;;;;;;;4.30;3.53;;;19.10;85.10;;;;;;5073598;28;20236;-58
2021/06/01 08:12:05;;;;;;;3.27;3.00;;;19.00;83.80;;;;;;5073539;28;20404;-57
2021/06/01 08:14:31;;;;;;;6.20;3.43;;;19.10;84.30;;;;;;5073386;28;20194;-58
2021/06/01 08:16:57;;;;;;;3.53;3.23;;;18.90;83.60;;;;;;5073140;28;20765;-57
2021/06/01 08:19:27;;;;;;;3.30;3.00;;;19.00;83.30;;;;;;5073496;28;20254;-54
2021/06/01 08:24:19;;;;;;;4.30;3.60;;;19.20;82.30;;;;;;5073578;28;20523;-59
2021/06/01 08:26:44;;;;;;;3.53;3.20;;;19.10;81.90;;;;;;5076115;28;20168;-58
2021/06/01 08:29:12;;;;;;;2.90;2.70;;;19.30;81.40;;;;;;5073480;28;20475;-56
2021/06/01 08:31:38;;;;;;;4.03;3.10;;;19.40;81.70;;;;;;5073848;28;20175;-57
2021/06/01 08:34:04;;;;;;;7.77;3.20;;;19.40;81.40;;;;;;5073022;28;20404;-59
2021/06/01 08:36:29;;;;;;;3.13;2.93;;;19.60;80.20;;;;;;5073202;28;20158;-58
2021/06/01 08:38:55;;;;;;;3.00;2.67;;;19.50;80.00;;;;;;5073113;28;20223;-59
2021/06/01 08:41:20;;;;;;;3.50;3.20;;;19.60;80.10;;;;;;5073011;28;20207;-58
2021/06/01 08:43:47;;;;;;;3.87;2.80;;;19.90;79.00;;;;;;5073261;28;20170;-59
2021/06/01 08:46:13;;;;;;;2.53;2.43;;;19.90;77.00;;;;;;5073279;28;20174;-58
2021/06/01 08:48:40;;;;;;;4.00;3.20;;;20.00;77.00;;;;;;5055799;28;20822;-59
2021/06/01 08:51:06;;;;;;;2.50;2.30;;;20.10;75.30;;;;;;5073307;28;20457;-57
2021/06/01 08:53:34;;;;;;;3.83;3.30;;;20.40;73.90;;;;;;5073290;28;20415;-58
2021/06/01 08:56:00;;;;;;;9.63;2.70;;;20.30;71.50;;;;;;5072908;28;20484;-59
2021/06/01 08:58:25;;;;;;;3.13;2.83;;;20.30;72.70;;;;;;5073025;28;20402;-58
2021/06/01 09:00:51;;;;;;;3.40;3.00;;;20.40;72.40;;;;;;5073353;28;20644;-58
2021/06/01 09:03:22;;;;;;;4.93;2.17;;;20.30;70.60;;;;;;5073460;28;20215;-57
2021/06/01 09:22:30;;;;;;;3.93;2.30;;;20.70;69.40;;;;;;5072998;28;20426;-58
2021/06/01 09:25:20;;;;;;;4.13;2.87;;;20.70;68.90;;;;;;5073109;28;20427;-57
2021/06/01 09:27:53;;;;;;;7.07;3.00;;;20.70;68.20;;;;;;5076749;28;20396;-59
2021/06/01 09:30:40;;;;;;;6.10;2.43;;;20.90;68.60;;;;;;5076606;28;20493;-58
2021/06/01 09:33:20;;;;;;;3.53;2.47;;;20.80;63.90;;;;;;5077081;28;20415;-57
2021/06/01 09:35:59;;;;;;;2.60;2.40;;;20.90;64.30;;;;;;5076833;28;20428;-57
2021/06/01 09:38:29;;;;;;;3.80;2.50;;;21.20;66.70;;;;;;5077125;28;20397;-55
2021/06/01 09:41:10;;;;;;;2.70;2.50;;;21.10;65.30;;;;;;5058951;28;20415;-59
2021/06/01 09:43:50;;;;;;;2.87;2.67;;;21.00;66.60;;;;;;5077049;28;20403;-56
2021/06/01 09:46:19;;;;;;;4.60;2.57;;;21.40;67.10;;;;;;5076688;28;20442;-58
2021/06/01 09:48:45;;;;;;;2.63;2.30;;;21.20;63.30;;;;;;5076358;28;20454;-57
2021/06/01 09:51:12;;;;;;;3.23;2.60;;;21.20;66.70;;;;;;5077130;28;20788;-59
2021/06/01 09:53:38;;;;;;;2.80;2.60;;;21.30;62.20;;;;;;5076768;28;20919;-57
2021/06/01 09:56:04;;;;;;;3.77;2.93;;;21.30;65.70;;;;;;5076156;28;20467;-59
2021/06/01 09:58:35;;;;;;;3.70;2.50;;;21.30;65.30;;;;;;5076134;28;20200;-58
2021/06/01 10:01:04;;;;;;;3.50;2.53;;;21.40;66.30;;;;;;5076151;28;20912;-56
2021/06/01 10:03:48;;;;;;;3.57;2.80;;;21.50;64.70;;;;;;5076543;28;20439;-55
2021/06/01 10:06:15;;;;;;;4.00;2.90;;;21.60;64.70;;;;;;5076308;28;20396;-57
2021/06/01 10:08:49;;;;;;;3.43;2.93;;;21.60;64.30;;;;;;5075951;28;20439;-55
2021/06/01 10:11:16;;;;;;;4.90;2.50;;;21.70;66.40;;;;;;5072045;28;20419;-58
2021/06/01 10:13:42;;;;;;;3.57;3.27;;;22.00;63.80;;;;;;5050433;28;20475;-57
2021/06/01 10:16:16;;;;;;;3.03;2.73;;;22.20;65.50;;;;;;5075647;28;20420;-58
2021/06/01 10:18:44;;;;;;;2.67;2.47;;;22.30;64.00;;;;;;5076241;28;20396;-57
2021/06/01 10:21:12;;;;;;;4.13;3.00;;;22.30;62.30;;;;;;5075819;28;20457;-56
2021/06/01 10:23:41;;;;;;;3.17;2.97;;;22.20;63.70;;;;;;5075652;28;20409;-57
2021/06/01 10:26:09;;;;;;;2.70;2.50;;;22.30;63.60;;;;;;5075723;28;20448;-58
2021/06/01 10:28:42;;;;;;;3.90;2.90;;;22.50;63.10;;;;;;5075806;28;20419;-56
2021/06/01 10:31:10;;;;;;;2.77;2.57;;;22.40;62.80;;;;;;5075830;28;20384;-59
2021/06/01 10:33:47;;;;;;;3.23;2.93;;;22.30;61.60;;;;;;5077966;28;20423;-58
2021/06/01 10:44:46;;;;;;;3.00;2.60;;;22.70;62.70;;;;;;5054715;28;20489;-57
2021/06/01 10:50:27;;;;;;;3.50;3.20;;;22.80;61.50;;;;;;5055619;28;20436;-58
2021/06/01 10:53:15;;;;;;;3.87;3.57;;;22.50;61.20;;;;;;5037288;28;20412;-57
2021/06/01 10:55:49;;;;;;;2.80;2.60;;;22.70;60.90;;;;;;5054768;28;20452;-57
2021/06/01 10:58:33;;;;;;;3.40;3.10;;;22.90;60.70;;;;;;5055333;28;20482;-57
2021/06/01 11:04:27;;;;;;;2.67;2.47;;;23.20;59.80;;;;;;5054843;28;20377;-55
2021/06/01 11:09:34;;;;;;;3.10;2.90;;;23.10;59.10;;;;;;5054928;28;20456;-57
2021/06/01 11:12:12;;;;;;;2.50;2.30;;;23.30;58.70;;;;;;5054988;28;20171;-56
2021/06/01 11:14:38;;;;;;;3.13;2.83;;;23.50;60.00;;;;;;5054511;28;20501;-58
2021/06/01 11:17:03;;;;;;;3.33;2.20;;;23.40;55.90;;;;;;5054919;28;20965;-58
2021/06/01 11:19:56;;;;;;;2.80;2.60;;;23.50;57.80;;;;;;5054683;28;20600;-58
2021/06/01 11:22:34;;;;;;;3.57;2.70;;;23.90;57.30;;;;;;5054813;28;20204;-59
2021/06/01 11:35:52;;;;;;;4.97;2.90;;;28.70;50.30;;;;;;5054295;28;20479;-59
2021/06/01 11:38:27;;;;;;;3.23;2.27;;;29.90;45.60;;;;;;5054007;28;20386;-61
2021/06/01 11:43:30;;;;;;;2.50;2.30;;;28.60;45.30;;;;;;5054243;28;20397;-59
2021/06/01 11:46:24;;;;;;;2.50;2.30;;;29.30;44.70;;;;;;5053991;28;20538;-59
2021/06/01 11:51:23;;;;;;;4.20;2.67;;;28.40;45.20;;;;;;5053742;28;20382;-59
2021/06/01 11:54:02;;;;;;;2.60;2.30;;;27.90;45.70;;;;;;5053878;28;20411;-58
2021/06/01 12:05:48;;;;;;;2.97;2.73;;;31.20;42.90;;;;;;5054247;28;20421;-61
2021/06/01 12:13:55;;;;;;;2.40;2.20;;;30.60;38.20;;;;;;5053512;28;20372;-61
2021/06/01 12:19:08;;;;;;;2.80;2.33;;;32.40;38.10;;;;;;5053973;28;20462;-58
2021/06/01 12:21:40;;;;;;;3.57;2.67;;;33.00;38.30;;;;;;5053686;28;20474;-58
2021/06/01 12:24:16;;;;;;;2.77;2.57;;;31.40;38.60;;;;;;5053859;28;20398;-58
2021/06/01 12:32:13;;;;;;;3.60;2.53;;;30.60;40.90;;;;;;5073573;28;20375;-58
2021/06/01 12:45:55;;;;;;;2.87;2.40;;;30.80;40.50;;;;;;5073659;28;20415;-58
2021/06/01 13:39:52;;;;;;;2.53;2.33;;;31.80;34.90;;;;;;5077004;28;20449;-60
2021/06/01 13:55:44;;;;;;;2.20;2.00;;;31.90;36.70;;;;;;5077568;28;20240;-58
2021/06/01 14:00:53;;;;;;;3.03;2.10;;;32.50;34.40;;;;;;5076416;28;20389;-57
2021/06/01 14:20:00;;;;;;;2.60;2.40;;;31.40;35.70;;;;;;5076422;28;20438;-59
2021/06/01 14:39:21;;;;;;;5.00;2.93;;;34.80;33.50;;;;;;5014052;28;20418;-58
2021/06/01 15:04:46;;;;;;;2.73;2.50;;;35.30;34.00;;;;;;5012855;28;20525;-58
2021/06/01 15:29:26;;;;;;;3.67;2.10;;;33.20;35.40;;;;;;5075069;28;20443;-57
2021/06/01 15:32:05;;;;;;;2.53;2.33;;;32.40;35.90;;;;;;5074204;28;20472;-56
2021/06/01 16:13:18;;;;;;;3.83;2.20;;;34.10;33.50;;;;;;5073679;28;20892;-57
2021/06/01 16:21:34;;;;;;;2.80;2.20;;;33.90;33.70;;;;;;5065878;28;20777;-54
2021/06/01 16:32:41;;;;;;;2.00;1.80;;;33.80;33.80;;;;;;5053524;28;20741;-56
2021/06/01 17:05:07;;;;;;;3.03;2.03;;;32.80;33.60;;;;;;5053502;28;20423;-53
2021/06/01 17:13:02;;;;;;;4.77;2.37;;;32.60;33.50;;;;;;5053385;28;20428;-57
2021/06/01 17:15:28;;;;;;;4.00;2.47;;;32.60;33.50;;;;;;5053084;28;20465;-57
2021/06/01 17:18:02;;;;;;;2.83;2.20;;;;;;;;;;5053110;28;20416;-61
2021/06/01 17:31:49;;;;;;;2.70;2.40;;;32.90;33.60;;;;;;4972475;28;20970;-60
2021/06/01 17:37:03;;;;;;;2.60;2.40;;;32.20;33.70;;;;;;5052641;28;20393;-59
2021/06/01 17:39:29;;;;;;;3.90;2.50;;;31.00;35.40;;;;;;5052589;28;20885;-60
2021/06/01 17:41:57;;;;;;;3.50;2.00;;;31.50;35.40;;;;;;5052789;28;20409;-60
2021/06/01 17:44:28;;;;;;;2.63;2.30;;;31.90;35.50;;;;;;5052345;28;20418;-60
2021/06/01 17:47:01;;;;;;;2.63;2.30;;;31.20;35.00;;;;;;5054122;28;20476;-58
2021/06/01 17:49:30;;;;;;;3.10;2.30;;;29.70;37.00;;;;;;5056230;28;20837;-60
2021/06/01 17:52:00;;;;;;;3.67;2.40;;;29.20;39.00;;;;;;5056328;28;20809;-60
2021/06/01 17:54:34;;;;;;;2.40;2.20;;;29.00;38.90;;;;;;5055541;28;20578;-60
2021/06/01 17:57:01;;;;;;;4.50;2.40;;;28.30;39.70;;;;;;5055378;28;20439;-60
2021/06/01 17:59:28;;;;;;;2.90;2.37;;;27.70;41.20;;;;;;5055996;28;20401;-60
2021/06/01 18:01:54;;;;;;;3.07;2.60;;;27.50;41.50;;;;;;5056179;28;20401;-60
2021/06/01 18:04:23;;;;;;;3.00;2.80;;;27.30;41.70;;;;;;5055630;28;20545;-59
2021/06/01 18:06:58;;;;;;;5.90;2.37;;;26.80;42.70;;;;;;5056025;28;20463;-57
2021/06/01 19:26:05;;;;;;;4.07;3.37;;;21.60;57.40;;;;;;5074655;28;20461;-55
2021/06/01 19:50:31;;;;;;;3.77;2.80;;;20.70;59.60;;;;;;5037103;28;20458;-59
2021/06/01 19:52:58;;;;;;;4.00;3.60;;;20.50;60.20;;;;;;5074032;28;20393;-61
2021/06/01 19:55:26;;;;;;;4.33;3.93;;;20.30;60.50;;;;;;5088168;23;20534;-54
2021/06/01 19:57:53;;;;;;;3.80;3.20;;;20.30;60.50;;;;;;5074171;28;20776;-55
2021/06/01 20:00:20;;;;;;;3.43;3.07;;;20.30;60.90;;;;;;5074302;28;20817;-53
2021/06/01 20:02:47;;;;;;;2.77;2.53;;;20.20;60.80;;;;;;5073934;28;20449;-53
2021/06/01 20:05:15;;;;;;;3.40;3.10;;;20.20;61.20;;;;;;5072170;28;20424;-55
2021/06/01 20:07:41;;;;;;;5.10;3.50;;;20.10;61.50;;;;;;5055453;28;20403;-55
2021/06/01 20:10:10;;;;;;;3.40;3.10;;;20.00;61.80;;;;;;5073056;28;20444;-55
2021/06/01 20:12:36;;;;;;;3.50;3.20;;;19.90;62.00;;;;;;5073211;28;20415;-57
2021/06/01 20:15:02;;;;;;;4.00;2.83;;;19.80;62.50;;;;;;5072614;28;20928;-55
2021/06/01 20:17:36;;;;;;;3.60;3.17;;;19.80;62.90;;;;;;5072852;28;20412;-55
2021/06/01 20:20:27;;;;;;;3.23;2.93;;;19.70;63.10;;;;;;5073245;28;20392;-56